createdAt,value
2022-08-22T00:00:52.781Z,53.91
2022-08-22T00:02:42.244Z,48.24
2022-08-22T00:03:16.084Z,53.41
2022-08-22T00:03:33.840Z,54.01
2022-08-22T00:06:14.110Z,54.38
2022-08-22T00:09:05.128Z,54.07
2022-08-22T00:11:52.109Z,54.06
2022-08-22T00:14:37.450Z,53.96
2022-08-22T00:17:41.087Z,54.29
2022-08-22T00:20:13.438Z,54.50
2022-08-22T00:22:52.899Z,54.46
2022-08-22T00:25:27.978Z,54.53
2022-08-22T00:27:59.666Z,54.69
2022-08-22T00:30:26.985Z,54.49
2022-08-22T00:32:59.349Z,54.64
2022-08-22T00:35:45.334Z,54.70
2022-08-22T00:38:15.394Z,54.77
2022-08-22T00:40:59.806Z,54.61
2022-08-22T00:43:26.130Z,54.91
2022-08-22T00:46:07.677Z,54.88
2022-08-22T00:48:40.595Z,55.16
2022-08-22T00:51:34.316Z,54.97
2022-08-22T00:54:06.815Z,55.02
2022-08-22T00:57:05.421Z,55.04
2022-08-22T00:59:41.117Z,55.25
2022-08-22T01:02:11.111Z,55.19
2022-08-22T01:04:58.712Z,55.42
2022-08-22T01:07:48.562Z,55.42
2022-08-22T01:10:35.285Z,55.45
2022-08-22T01:13:29.208Z,55.28
2022-08-22T01:16:15.956Z,55.40
2022-08-22T01:19:06.656Z,55.69
2022-08-22T01:21:46.666Z,55.79
2022-08-22T01:24:34.505Z,55.79
2022-08-22T01:27:29.271Z,55.90
2022-08-22T01:30:18.262Z,55.76
2022-08-22T01:33:16.399Z,55.96
2022-08-22T01:36:07.714Z,55.81
2022-08-22T01:39:03.499Z,55.97
2022-08-22T01:42:02.926Z,55.77
2022-08-22T01:44:43.968Z,56.12
2022-08-22T01:47:17.015Z,56.29
2022-08-22T01:49:53.803Z,55.96
2022-08-22T01:52:43.576Z,56.29
2022-08-22T01:55:21.255Z,56.23
2022-08-22T01:57:54.910Z,56.13
2022-08-22T02:00:35.093Z,56.07
2022-08-22T02:03:26.268Z,56.25
2022-08-22T02:06:03.235Z,56.47
2022-08-22T02:08:48.370Z,56.27
2022-08-22T02:11:37.098Z,56.58
2022-08-22T02:14:16.950Z,56.34
2022-08-22T02:16:55.682Z,56.23
2022-08-22T02:19:39.877Z,56.48
2022-08-22T02:22:57.770Z,56.60
2022-08-22T02:25:30.205Z,56.57
2022-08-22T02:28:13.729Z,56.67
2022-08-22T02:30:49.959Z,56.91
2022-08-22T02:33:32.766Z,56.95
2022-08-22T02:36:14.343Z,56.77
2022-08-22T02:39:17.357Z,56.89
2022-08-22T02:41:53.491Z,56.64
2022-08-22T02:44:26.654Z,56.86
2022-08-22T02:47:08.862Z,56.72
2022-08-22T02:49:51.708Z,57.09
2022-08-22T02:52:33.089Z,57.01
2022-08-22T02:55:16.316Z,57.09
2022-08-22T02:57:57.166Z,57.02
2022-08-22T03:00:32.657Z,57.26
2022-08-22T03:02:59.622Z,57.32
2022-08-22T03:05:38.143Z,57.30
2022-08-22T03:08:22.503Z,57.03
2022-08-22T03:11:19.074Z,57.35
2022-08-22T03:14:16.571Z,57.41
2022-08-22T03:17:01.330Z,57.38
2022-08-22T03:19:43.967Z,57.31
2022-08-22T03:22:34.512Z,57.44
2022-08-22T03:25:15.124Z,57.16
2022-08-22T03:28:06.066Z,57.36
2022-08-22T03:30:42.232Z,57.61
2022-08-22T03:33:21.003Z,57.44
2022-08-22T03:35:47.703Z,57.67
2022-08-22T03:38:28.514Z,57.39
2022-08-22T03:41:17.665Z,57.64
2022-08-22T03:44:17.330Z,57.53
2022-08-22T03:46:52.967Z,57.60
2022-08-22T03:49:50.161Z,57.85
2022-08-22T03:55:15.335Z,57.69
2022-08-22T03:58:27.911Z,57.95
2022-08-22T04:01:31.564Z,58.05
2022-08-22T04:04:18.839Z,57.90
2022-08-22T04:07:05.462Z,57.88
2022-08-22T04:10:07.833Z,57.98
2022-08-22T04:13:04.055Z,57.81
2022-08-22T04:16:03.008Z,58.12
2022-08-22T04:19:00.595Z,57.90
2022-08-22T04:22:17.583Z,58.02
2022-08-22T04:25:02.635Z,57.97
2022-08-22T04:27:43.914Z,57.98
2022-08-22T04:30:16.109Z,58.28
2022-08-22T04:32:52.900Z,58.17
2022-08-22T04:35:36.578Z,57.90
2022-08-22T04:38:14.321Z,58.17
2022-08-22T04:40:47.161Z,58.06
2022-08-22T04:43:23.727Z,58.11
2022-08-22T04:45:58.754Z,58.35
2022-08-22T04:48:57.399Z,58.20
2022-08-22T04:51:38.666Z,58.09
2022-08-22T04:54:24.115Z,58.29
2022-08-22T04:57:09.312Z,58.68
2022-08-22T04:59:36.417Z,58.52
2022-08-22T05:02:08.494Z,58.41
2022-08-22T05:04:46.374Z,58.30
2022-08-22T05:07:29.065Z,58.27
2022-08-22T05:10:21.667Z,58.59
2022-08-22T05:12:54.119Z,58.61
2022-08-22T05:15:26.409Z,58.67
2022-08-22T05:17:57.294Z,58.62
2022-08-22T05:20:27.893Z,58.66
2022-08-22T05:23:06.491Z,58.76
2022-08-22T05:25:48.331Z,58.63
2022-08-22T05:28:23.267Z,58.63
2022-08-22T05:30:51.257Z,58.96
2022-08-22T05:33:30.129Z,58.65
2022-08-22T05:36:22.523Z,58.87
2022-08-22T05:38:54.779Z,58.82
2022-08-22T05:41:25.607Z,59.15
2022-08-22T05:43:53.731Z,59.24
2022-08-22T05:46:41.299Z,58.89
2022-08-22T05:49:45.008Z,59.12
2022-08-22T05:52:40.089Z,59.05
2022-08-22T05:55:20.667Z,59.27
2022-08-22T05:57:52.176Z,59.24
2022-08-22T06:00:22.454Z,59.21
2022-08-22T06:02:51.688Z,59.48
2022-08-22T06:05:40.184Z,59.36
2022-08-22T06:08:36.470Z,59.43
2022-08-22T06:11:32.768Z,59.38
2022-08-22T06:14:42.260Z,59.46
2022-08-22T06:17:22.615Z,59.35
2022-08-22T06:19:52.431Z,59.76
2022-08-22T06:22:28.313Z,59.97
2022-08-22T06:25:00.929Z,59.76
2022-08-22T06:27:31.269Z,59.58
2022-08-22T06:30:01.442Z,59.80
2022-08-22T06:32:59.324Z,59.74
2022-08-22T06:35:55.565Z,59.41
2022-08-22T06:38:29.285Z,59.72
2022-08-22T06:41:00.467Z,59.79
2022-08-22T06:43:27.997Z,59.93
2022-08-22T06:45:54.647Z,59.34
2022-08-22T06:48:23.626Z,59.77
2022-08-22T06:50:55.715Z,59.45
2022-08-22T06:53:28.065Z,59.98
2022-08-22T06:55:57.363Z,59.57
2022-08-22T06:58:30.941Z,59.79
2022-08-22T07:01:12.369Z,60.50
2022-08-22T07:03:50.006Z,60.80
2022-08-22T07:06:29.892Z,60.85
2022-08-22T07:08:57.265Z,60.70
2022-08-22T07:11:34.519Z,60.92
2022-08-22T07:14:06.754Z,60.88
2022-08-22T07:16:42.348Z,60.96
2022-08-22T07:19:22.136Z,60.79
2022-08-22T07:21:48.789Z,61.02
2022-08-22T07:24:20.634Z,61.26
2022-08-22T07:27:08.902Z,61.06
2022-08-22T07:30:00.594Z,61.87
2022-08-22T07:32:51.830Z,61.21
2022-08-22T07:35:30.319Z,61.50
2022-08-22T07:38:00.811Z,61.44
2022-08-22T07:41:09.755Z,61.56
2022-08-22T07:43:52.899Z,61.24
2022-08-22T07:47:07.242Z,61.46
2022-08-22T07:49:50.383Z,61.26
2022-08-22T07:52:18.366Z,61.29
2022-08-22T07:55:08.060Z,61.82
2022-08-22T07:57:43.233Z,61.26
2022-08-22T08:00:16.853Z,61.30
2022-08-22T08:02:50.818Z,61.17
2022-08-22T08:05:19.951Z,61.13
2022-08-22T08:07:47.923Z,60.98
2022-08-22T08:10:25.633Z,60.92
2022-08-22T08:13:02.838Z,60.89
2022-08-22T08:15:32.151Z,60.91
2022-08-22T08:18:05.347Z,60.80
2022-08-22T08:20:35.504Z,60.69
2022-08-22T08:23:06.728Z,60.64
2022-08-22T08:25:48.893Z,60.59
2022-08-22T08:28:37.628Z,60.58
2022-08-22T08:31:13.235Z,60.06
2022-08-22T08:33:44.071Z,60.38
2022-08-22T08:36:34.167Z,60.09
2022-08-22T08:39:19.780Z,60.10
2022-08-22T08:42:23.857Z,59.94
2022-08-22T08:45:28.949Z,59.70
2022-08-22T08:48:24.629Z,59.69
2022-08-22T08:51:39.129Z,59.14
2022-08-22T08:54:46.027Z,59.19
2022-08-22T08:57:36.027Z,59.17
2022-08-22T09:00:15.989Z,58.95
2022-08-22T09:03:07.010Z,58.77
2022-08-22T09:05:55.547Z,58.67
2022-08-22T09:08:37.376Z,58.52
2022-08-22T09:11:46.363Z,58.36
2022-08-22T09:14:26.989Z,57.87
2022-08-22T09:17:06.894Z,57.89
2022-08-22T09:19:52.085Z,57.63
2022-08-22T09:22:51.618Z,57.30
2022-08-22T09:25:40.239Z,57.36
2022-08-22T09:28:13.804Z,57.38
2022-08-22T09:31:32.716Z,57.03
2022-08-22T09:34:58.908Z,56.94
2022-08-22T09:37:47.193Z,56.68
2022-08-22T09:40:28.692Z,56.58
2022-08-22T09:43:05.483Z,56.37
2022-08-22T09:45:54.182Z,56.33
2022-08-22T09:48:36.166Z,56.40
2022-08-22T09:51:40.855Z,56.07
2022-08-22T09:54:10.283Z,56.19
2022-08-22T09:56:44.785Z,56.13
2022-08-22T09:59:28.472Z,55.99
2022-08-22T10:02:01.572Z,55.83
2022-08-22T10:04:43.829Z,55.80
2022-08-22T10:07:35.316Z,55.52
2022-08-22T10:10:24.167Z,55.27
2022-08-22T10:13:29.841Z,55.41
2022-08-22T10:16:20.067Z,54.90
2022-08-22T10:19:05.288Z,54.93
2022-08-22T10:21:43.388Z,54.84
2022-08-22T10:24:25.596Z,54.69
2022-08-22T10:27:11.387Z,54.64
2022-08-22T10:29:46.562Z,54.87
2022-08-22T10:32:35.053Z,54.38
2022-08-22T10:35:20.047Z,54.14
2022-08-22T10:37:58.117Z,54.03
2022-08-22T10:40:34.324Z,54.07
2022-08-22T10:43:11.173Z,53.71
2022-08-22T10:45:43.394Z,53.99
2022-08-22T10:48:23.691Z,53.90
2022-08-22T10:50:58.185Z,53.24
2022-08-22T10:53:54.054Z,53.42
2022-08-22T10:56:28.681Z,53.51
2022-08-22T10:59:14.191Z,53.26
2022-08-22T11:02:00.307Z,53.34
2022-08-22T11:04:55.628Z,53.48
2022-08-22T11:07:31.447Z,53.36
2022-08-22T11:10:09.108Z,52.92
2022-08-22T11:12:44.589Z,53.09
2022-08-22T11:15:34.777Z,53.04
2022-08-22T11:18:14.625Z,53.00
2022-08-22T11:20:44.168Z,52.78
2022-08-22T11:23:40.662Z,52.75
2022-08-22T11:26:47.141Z,52.77
2022-08-22T11:29:41.249Z,52.81
2022-08-22T11:32:23.005Z,52.59
2022-08-22T11:34:49.402Z,52.68
2022-08-22T11:37:42.764Z,52.11
2022-08-22T11:40:38.479Z,52.24
2022-08-22T11:43:10.659Z,52.33
2022-08-22T11:45:47.385Z,51.78
2022-08-22T11:48:23.637Z,51.99
2022-08-22T11:51:25.266Z,51.90
2022-08-22T11:54:09.001Z,51.92
2022-08-22T11:56:43.259Z,51.93
2022-08-22T11:59:22.675Z,51.69
2022-08-22T12:01:56.292Z,51.56
2022-08-22T12:04:33.836Z,50.97
2022-08-22T12:07:14.983Z,51.40
2022-08-22T12:09:52.077Z,51.66
2022-08-22T12:12:35.737Z,51.19
2022-08-22T12:15:33.445Z,51.07
2022-08-22T12:18:30.999Z,50.70
2022-08-22T12:21:02.365Z,50.36
2022-08-22T12:23:49.136Z,50.68
2022-08-22T12:26:19.184Z,50.69
2022-08-22T12:29:03.275Z,50.80
2022-08-22T12:31:40.998Z,50.78
2022-08-22T12:34:19.125Z,50.50
2022-08-22T12:36:50.801Z,50.48
2022-08-22T12:39:36.061Z,50.49
2022-08-22T12:42:28.826Z,50.54
2022-08-22T12:45:15.126Z,50.23
2022-08-22T12:47:47.670Z,49.84
2022-08-22T12:50:31.358Z,49.72
2022-08-22T12:53:18.242Z,49.47
2022-08-22T12:56:06.346Z,49.64
2022-08-22T12:59:17.725Z,49.67
2022-08-22T13:01:47.890Z,50.10
2022-08-22T13:04:32.488Z,49.71
2022-08-22T13:07:08.396Z,49.77
2022-08-22T13:09:40.680Z,49.46
2022-08-22T13:12:36.254Z,49.76
2022-08-22T13:15:13.679Z,49.69
2022-08-22T13:17:44.345Z,49.61
2022-08-22T13:20:20.596Z,49.22
2022-08-22T13:22:47.557Z,49.75
2022-08-22T13:25:26.051Z,49.61
2022-08-22T13:28:12.985Z,49.49
2022-08-22T13:30:41.323Z,48.02
2022-08-22T13:33:12.830Z,49.28
2022-08-22T13:35:58.948Z,49.02
2022-08-22T13:38:46.701Z,49.39
2022-08-22T13:41:21.018Z,49.36
2022-08-22T13:44:12.014Z,49.34
2022-08-22T13:46:52.977Z,49.12
2022-08-22T13:49:36.765Z,48.50
2022-08-22T13:52:28.994Z,48.37
2022-08-22T13:55:12.712Z,48.48
2022-08-22T13:57:51.776Z,47.79
2022-08-22T14:00:25.397Z,48.11
2022-08-22T14:03:17.582Z,47.38
2022-08-22T14:05:53.476Z,47.88
2022-08-22T14:08:32.041Z,47.71
2022-08-22T14:11:10.462Z,47.87
2022-08-22T14:13:44.634Z,47.97
2022-08-22T14:16:29.322Z,47.47
2022-08-22T14:19:06.904Z,47.10
2022-08-22T14:21:40.708Z,46.93
2022-08-22T14:24:12.745Z,46.64
2022-08-22T14:27:07.899Z,47.55
2022-08-22T14:29:50.739Z,47.83
2022-08-22T14:32:25.860Z,46.84
2022-08-22T14:35:02.722Z,46.26
2022-08-22T14:37:35.210Z,46.64
2022-08-22T14:40:13.725Z,46.64
2022-08-22T14:42:45.162Z,46.64
2022-08-22T14:45:25.070Z,47.07
2022-08-22T14:48:30.028Z,46.68
2022-08-22T14:51:04.341Z,47.09
2022-08-22T14:53:37.099Z,46.99
2022-08-22T14:56:10.990Z,46.51
2022-08-22T14:59:06.119Z,46.64
2022-08-22T15:01:53.201Z,46.66
2022-08-22T15:04:26.830Z,45.83
2022-08-22T15:06:58.513Z,46.06
2022-08-22T15:09:33.940Z,46.31
2022-08-22T15:12:03.859Z,46.01
2022-08-22T15:14:52.150Z,46.52
2022-08-22T15:17:44.808Z,46.23
2022-08-22T15:20:31.311Z,46.44
2022-08-22T15:23:10.343Z,46.56
2022-08-22T15:25:42.497Z,46.29
2022-08-22T15:28:14.339Z,46.03
2022-08-22T15:31:07.521Z,45.49
2022-08-22T15:33:40.402Z,44.78
2022-08-22T15:36:24.078Z,45.77
2022-08-22T15:39:15.629Z,45.46
2022-08-22T15:41:47.941Z,44.77
2022-08-22T15:44:32.147Z,45.12
2022-08-22T15:47:24.238Z,44.26
2022-08-22T15:50:05.383Z,45.09
2022-08-22T15:52:57.040Z,45.10
2022-08-22T15:55:34.526Z,45.29
2022-08-22T15:58:20.642Z,45.22
2022-08-22T16:01:23.738Z,45.63
2022-08-22T16:03:55.939Z,45.47
2022-08-22T16:06:53.069Z,45.29
2022-08-22T16:09:39.334Z,45.81
2022-08-22T16:12:12.449Z,45.04
2022-08-22T16:14:42.301Z,44.23
2022-08-22T16:17:30.486Z,44.48
2022-08-22T16:20:29.154Z,44.84
2022-08-22T16:22:56.399Z,44.71
2022-08-22T16:25:44.418Z,43.90
2022-08-22T16:28:54.201Z,44.38
2022-08-22T16:31:27.367Z,44.57
2022-08-22T16:33:58.352Z,44.84
2022-08-22T16:36:39.492Z,44.83
2022-08-22T16:39:21.272Z,44.47
2022-08-22T16:42:13.927Z,44.82
2022-08-22T16:44:45.887Z,45.07
2022-08-22T16:47:22.377Z,45.74
2022-08-22T16:49:51.919Z,45.90
2022-08-22T16:52:24.298Z,45.32
2022-08-22T16:55:01.255Z,45.15
2022-08-22T16:57:34.987Z,45.47
2022-08-22T17:00:27.108Z,44.44
2022-08-22T17:03:18.160Z,44.71
2022-08-22T17:05:53.425Z,44.37
2022-08-22T17:08:22.897Z,44.54
2022-08-22T17:10:59.986Z,45.03
2022-08-22T17:13:52.991Z,44.91
2022-08-22T17:16:36.733Z,44.51
2022-08-22T17:19:22.610Z,45.20
2022-08-22T17:21:55.999Z,44.52
2022-08-22T17:24:44.848Z,45.14
2022-08-22T17:27:30.990Z,45.28
2022-08-22T17:30:03.955Z,45.19
2022-08-22T17:33:06.450Z,45.23
2022-08-22T17:35:50.318Z,45.07
2022-08-22T17:38:49.066Z,45.24
2022-08-22T17:41:35.206Z,45.02
2022-08-22T17:44:31.909Z,45.44
2022-08-22T17:47:22.534Z,45.04
2022-08-22T17:49:58.381Z,45.03
2022-08-22T17:52:36.966Z,44.76
2022-08-22T17:55:25.035Z,45.05
2022-08-22T17:58:37.755Z,44.67
2022-08-22T18:01:13.419Z,44.81
2022-08-22T18:03:47.250Z,44.71
2022-08-22T18:06:23.841Z,45.18
2022-08-22T18:09:15.171Z,44.74
2022-08-22T18:11:55.922Z,44.80
2022-08-22T18:14:51.195Z,44.13
2022-08-22T18:17:21.729Z,44.78
2022-08-22T18:20:13.120Z,44.81
2022-08-22T18:22:39.491Z,44.13
2022-08-22T18:25:18.206Z,44.52
2022-08-22T18:27:56.693Z,44.51
2022-08-22T18:30:37.774Z,43.77
2022-08-22T18:33:25.305Z,44.11
2022-08-22T18:36:09.347Z,43.88
2022-08-22T18:38:51.931Z,44.13
2022-08-22T18:41:38.701Z,43.94
2022-08-22T18:44:18.244Z,44.33
2022-08-22T18:46:47.016Z,44.40
2022-08-22T18:49:39.374Z,43.99
2022-08-22T18:52:09.130Z,43.79
2022-08-22T18:55:17.763Z,43.96
2022-08-22T18:57:53.006Z,44.21
2022-08-22T19:00:57.332Z,44.53
2022-08-22T19:03:45.361Z,43.91
2022-08-22T19:06:42.970Z,44.18
2022-08-22T19:09:45.248Z,44.57
2022-08-22T19:12:31.975Z,44.03
2022-08-22T19:15:32.408Z,44.68
2022-08-22T19:18:26.818Z,43.88
2022-08-22T19:21:56.648Z,44.22
2022-08-22T19:24:25.819Z,43.93
2022-08-22T19:27:18.428Z,44.13
2022-08-22T19:29:44.818Z,44.32
2022-08-22T19:32:46.287Z,44.40
2022-08-22T19:35:37.514Z,44.47
2022-08-22T19:38:07.051Z,44.37
2022-08-22T19:40:45.553Z,44.43
2022-08-22T19:43:30.337Z,44.68
2022-08-22T19:45:59.694Z,44.67
2022-08-22T19:48:31.500Z,44.49
2022-08-22T19:51:22.522Z,44.54
2022-08-22T19:54:01.245Z,44.53
2022-08-22T19:56:43.018Z,44.50
2022-08-22T19:59:51.036Z,44.86
2022-08-22T20:02:24.079Z,44.85
2022-08-22T20:05:03.869Z,45.13
2022-08-22T20:08:04.581Z,45.42
2022-08-22T20:10:40.563Z,45.21
2022-08-22T20:13:21.982Z,45.02
2022-08-22T20:16:21.648Z,45.12
2022-08-22T20:19:07.842Z,44.60
2022-08-22T20:21:58.842Z,45.46
2022-08-22T20:24:58.495Z,45.06
2022-08-22T20:27:27.910Z,44.98
2022-08-22T20:30:07.072Z,45.07
2022-08-22T20:32:41.119Z,45.35
2022-08-22T20:35:10.323Z,45.34
2022-08-22T20:38:05.685Z,45.27
2022-08-22T20:40:55.004Z,45.35
2022-08-22T20:43:39.737Z,45.52
2022-08-22T20:46:20.582Z,45.61
2022-08-22T20:48:50.738Z,45.54
2022-08-22T20:51:23.996Z,45.51
2022-08-22T20:54:10.036Z,46.02
2022-08-22T20:56:53.638Z,45.77
2022-08-22T20:59:39.261Z,46.08
2022-08-22T21:02:24.516Z,45.85
2022-08-22T21:05:18.467Z,45.76
2022-08-22T21:07:47.458Z,45.78
2022-08-22T21:10:37.437Z,45.96
2022-08-22T21:13:03.903Z,45.80
2022-08-22T21:15:37.195Z,45.82
2022-08-22T21:18:04.539Z,46.01
2022-08-22T21:20:35.545Z,45.98
2022-08-22T21:23:10.052Z,46.10
2022-08-22T21:25:51.071Z,46.18
2022-08-22T21:28:40.892Z,46.01
2022-08-22T21:31:19.122Z,46.22
2022-08-22T21:33:48.497Z,46.62
2022-08-22T21:36:20.614Z,46.67
2022-08-22T21:39:03.780Z,46.44
2022-08-22T21:41:53.707Z,46.72
2022-08-22T21:44:41.627Z,46.51
2022-08-22T21:47:30.652Z,46.79
2022-08-22T21:50:06.612Z,46.68
2022-08-22T21:52:38.861Z,46.73
2022-08-22T21:55:26.753Z,46.94
2022-08-22T21:58:34.216Z,47.04
2022-08-22T22:01:24.937Z,47.02
2022-08-22T22:03:54.243Z,46.93
2022-08-22T22:06:20.736Z,46.88
2022-08-22T22:08:48.865Z,47.10
2022-08-22T22:11:15.801Z,47.21
2022-08-22T22:13:42.619Z,47.22
2022-08-22T22:16:12.034Z,47.31
2022-08-22T22:18:39.573Z,47.29
2022-08-22T22:21:06.683Z,47.17
2022-08-22T22:23:33.195Z,47.46
2022-08-22T22:26:02.412Z,47.40
2022-08-22T22:28:32.878Z,47.38
2022-08-22T22:30:59.523Z,47.33
2022-08-22T22:33:28.995Z,47.45
2022-08-22T22:35:58.847Z,47.75
2022-08-22T22:38:25.511Z,47.63
2022-08-22T22:40:52.634Z,47.55
2022-08-22T22:43:19.512Z,47.77
2022-08-22T22:45:46.199Z,47.82
2022-08-22T22:48:24.109Z,47.63
2022-08-22T22:50:52.776Z,47.89
2022-08-22T22:53:21.321Z,47.89
2022-08-22T22:55:59.608Z,48.02
2022-08-22T22:58:27.863Z,47.92
2022-08-22T23:00:54.391Z,47.70
2022-08-22T23:03:21.438Z,47.95
2022-08-22T23:05:48.319Z,48.17
2022-08-22T23:08:14.829Z,48.18
2022-08-22T23:10:41.326Z,48.17
2022-08-22T23:13:07.952Z,48.37
2022-08-22T23:15:34.499Z,48.26
2022-08-22T23:18:02.317Z,48.40
2022-08-22T23:20:28.862Z,48.24
2022-08-22T23:22:55.477Z,48.41
2022-08-22T23:25:22.006Z,48.25
2022-08-22T23:27:48.810Z,48.41
2022-08-22T23:30:19.653Z,48.29
2022-08-22T23:32:46.298Z,48.50
2022-08-22T23:35:12.829Z,48.39
2022-08-22T23:37:39.470Z,48.52
2022-08-22T23:40:08.560Z,48.63
2022-08-22T23:42:35.210Z,48.79
2022-08-22T23:45:01.913Z,48.64
2022-08-22T23:47:28.547Z,48.84
2022-08-22T23:49:55.019Z,49.00
2022-08-22T23:52:21.613Z,48.90
2022-08-22T23:54:48.150Z,48.79
2022-08-22T23:57:20.926Z,48.63
2022-08-22T23:59:57.495Z,49.07
